Back to Top

Language: 

My Weather Underground Personal Weather Station Historical Data with Graphs...

Delerius Weather Station Historical Data
Daily Summary for August 19, 2017 Units:  Metric    English   Both
« Previous Day
Next Day »
Daily Weekly Monthly Yearly Custom
  High: Low: Average:
Temperature: 17.1 °C 10.4 °C 14.1 °C
Dew Point: 13.1 °C 8.3 °C 10.5 °C
Humidity: 90 % 61 % 79 %
Wind Speed: 27.4 km/h 0 km/h 16.9 km/h
Wind Gust: 51.5 km/h - -
Wind:- - West
Pressure: 1017.5 hPa 1008 hPa -
Precipitation: 0.51 mm    
Historical Graphs
 
 
Tabular Data for August 19, 2017
Time Temperature Dew Point Pressure Wind Wind Speed Wind Gust Humidity Rainfall Rate (Hourly) solar Conditions
00:02 11.5 °C 8.9 °C 1008 hPa WSW 14.5 km/h 22.5 km/h 84 % 0 mm 0 W/m2
00:03 11.5 °C 8.9 °C 1008 hPa WSW 14.5 km/h 22.5 km/h 84 % 0 mm 0 W/m2
00:08 11.4 °C 8.8 °C 1008 hPa WSW 12.9 km/h 20.9 km/h 84 % 0 mm 0 W/m2
00:13 11.3 °C 8.9 °C 1008 hPa WSW 11.3 km/h 19.3 km/h 85 % 0 mm 0 W/m2
00:18 11.3 °C 8.9 °C 1008.4 hPa WSW 9.7 km/h 14.5 km/h 85 % 0 mm 0 W/m2
00:23 11.2 °C 8.8 °C 1008.4 hPa West 8 km/h 14.5 km/h 85 % 0 mm 0 W/m2
00:28 11.2 °C 8.8 °C 1008.4 hPa West 8 km/h 14.5 km/h 85 % 0 mm 0 W/m2
00:33 11.1 °C 8.7 °C 1008.4 hPa WSW 6.4 km/h 11.3 km/h 85 % 0 mm 0 W/m2
00:38 11 °C 8.7 °C 1008.4 hPa WSW 3.2 km/h 9.7 km/h 86 % 0 mm 0 W/m2
00:43 10.9 °C 8.7 °C 1008.4 hPa WSW 1.6 km/h 8 km/h 86 % 0 mm 0 W/m2
00:48 10.8 °C 8.6 °C 1008.4 hPa Calm   8 km/h 86 % 0 mm 0 W/m2
00:53 10.7 °C 8.4 °C 1008 hPa Calm   8 km/h 86 % 0 mm 0 W/m2
00:59 10.6 °C 8.5 °C 1008 hPa Calm   8 km/h 87 % 0 mm 0 W/m2
01:04 10.5 °C 8.4 °C 1008.4 hPa Calm   8 km/h 87 % 0 mm 0 W/m2
01:09 10.4 °C 8.3 °C 1008.4 hPa Calm   6.4 km/h 87 % 0 mm 0 W/m2
01:14 10.4 °C 8.3 °C 1008.4 hPa Calm   6.4 km/h 87 % 0 mm 0 W/m2
01:19 10.4 °C 8.5 °C 1008.4 hPa WSW 1.6 km/h 12.9 km/h 88 % 0 mm 0 W/m2
01:24 10.4 °C 8.7 °C 1008.4 hPa WSW 1.6 km/h 12.9 km/h 89 % 0 mm 0 W/m2
01:29 10.5 °C 8.6 °C 1008.4 hPa Calm   8 km/h 88 % 0 mm 0 W/m2
01:34 10.4 °C 8.7 °C 1008.4 hPa Calm     89 % 0 mm 0 W/m2
01:39 10.4 °C 8.7 °C 1008.4 hPa Calm     89 % 0 mm 0 W/m2
01:44 10.4 °C 8.8 °C 1008.4 hPa WSW 1.6 km/h 8 km/h 90 % 0 mm 0 W/m2
01:49 10.6 °C 9 °C 1008.4 hPa WSW 3.2 km/h 9.7 km/h 90 % 0 mm 0 W/m2
01:54 10.8 °C 9.2 °C 1008.4 hPa WSW 4.8 km/h 14.5 km/h 90 % 0 mm 0 W/m2
01:59 11 °C 9.4 °C 1008.4 hPa WSW 8 km/h 14.5 km/h 90 % 0 mm 0 W/m2
02:04 11.3 °C 9.7 °C 1008.4 hPa WSW 11.3 km/h 19.3 km/h 90 % 0 mm 0 W/m2
02:09 11.6 °C 10 °C 1008.4 hPa WSW 12.9 km/h 20.9 km/h 90 % 0 mm 0 W/m2
02:14 11.8 °C 10.1 °C 1008.7 hPa West 12.9 km/h 20.9 km/h 89 % 0 mm 0 W/m2
02:19 11.9 °C 10.2 °C 1008.7 hPa West 12.9 km/h 22.5 km/h 89 % 0 mm 0 W/m2
02:24 12.1 °C 10.2 °C 1008.7 hPa West 12.9 km/h 22.5 km/h 88 % 0 mm 0 W/m2
02:29 12.2 °C 10.3 °C 1008.7 hPa West 12.9 km/h 20.9 km/h 88 % 0 mm 0 W/m2
02:34 12.2 °C 10.1 °C 1008.7 hPa West 11.3 km/h 19.3 km/h 87 % 0 mm 0 W/m2
02:39 12.2 °C 10.1 °C 1008.7 hPa West 11.3 km/h 20.9 km/h 87 % 0 mm 0 W/m2
02:44 12.3 °C 10.2 °C 1008.7 hPa West 9.7 km/h 20.9 km/h 87 % 0 mm 0 W/m2
02:49 12.3 °C 10.2 °C 1008.7 hPa West 6.4 km/h 14.5 km/h 87 % 0 mm 0 W/m2
02:54 12.2 °C 10.1 °C 1009 hPa West 4.8 km/h 12.9 km/h 87 % 0 mm 0 W/m2
02:59 12.2 °C 10.1 °C 1009 hPa WSW 4.8 km/h 9.7 km/h 87 % 0 mm 0 W/m2
03:05 12.2 °C 10.1 °C 1009 hPa WSW 3.2 km/h 12.9 km/h 87 % 0 mm 0 W/m2
03:10 12.2 °C 10.3 °C 1009 hPa West 6.4 km/h 20.9 km/h 88 % 0 mm 0 W/m2
03:15 12.3 °C 10.4 °C 1009 hPa West 12.9 km/h 25.7 km/h 88 % 0 mm 0 W/m2
03:20 12.3 °C 10.4 °C 1009 hPa WNW 12.9 km/h 25.7 km/h 88 % 0 mm 0 W/m2
03:25 12.4 °C 10.4 °C 1009 hPa WNW 12.9 km/h 25.7 km/h 88 % 0 mm 0 W/m2
03:30 12.4 °C 10.4 °C 1009 hPa WNW 12.9 km/h 20.9 km/h 88 % 0 mm 0 W/m2
03:35 12.5 °C 10.6 °C 1009 hPa WNW 14.5 km/h 32.2 km/h 88 % 0 mm 0 W/m2
03:40 12.5 °C 10.6 °C 1009.4 hPa WNW 16.1 km/h 32.2 km/h 88 % 0 mm 0 W/m2
03:45 12.5 °C 10.4 °C 1009.4 hPa WNW 16.1 km/h 25.7 km/h 87 % 0 mm 0 W/m2
03:50 12.6 °C 10.5 °C 1009 hPa WNW 16.1 km/h 32.2 km/h 87 % 0 mm 0 W/m2
03:55 12.6 °C 10.5 °C 1009.4 hPa WNW 14.5 km/h 29 km/h 87 % 0 mm 0 W/m2
04:00 12.6 °C 10.3 °C 1009.4 hPa WNW 12.9 km/h 24.1 km/h 86 % 0 mm 0 W/m2
04:05 12.6 °C 10.3 °C 1009.4 hPa WNW 12.9 km/h 24.1 km/h 86 % 0 mm 0 W/m2
04:10 12.6 °C 10.3 °C 1009.4 hPa WNW 11.3 km/h 22.5 km/h 86 % 0 mm 0 W/m2
04:15 12.5 °C 10.2 °C 1009.4 hPa West 11.3 km/h 22.5 km/h 86 % 0 mm 0 W/m2
04:20 12.4 °C 10.1 °C 1009.4 hPa West 9.7 km/h 20.9 km/h 86 % 0 mm 0 W/m2
04:24 12.4 °C 10.1 °C 1009.4 hPa West 12.9 km/h 32.2 km/h 86 % 0 mm 0 W/m2
04:25 12.4 °C 10.1 °C 1009.4 hPa West 12.9 km/h 32.2 km/h 86 % 0 mm 0 W/m2
04:30 12.4 °C 10.1 °C 1009.4 hPa West 14.5 km/h 32.2 km/h 86 % 0 mm 0 W/m2
04:35 12.4 °C 10.1 °C 1009.4 hPa West 16.1 km/h 30.6 km/h 86 % 0 mm 0 W/m2
04:40 12.5 °C 10.1 °C 1009.4 hPa West 17.7 km/h 32.2 km/h 85 % 0 mm 0 W/m2
04:45 12.5 °C 10.1 °C 1009.4 hPa West 17.7 km/h 32.2 km/h 85 % 0 mm 0 W/m2
04:50 12.5 °C 10.1 °C 1009.4 hPa WNW 17.7 km/h 35.4 km/h 85 % 0 mm 0 W/m2
04:55 12.5 °C 9.9 °C 1009.4 hPa WNW 19.3 km/h 35.4 km/h 84 % 0 mm 0 W/m2
05:00 12.5 °C 9.9 °C 1009.4 hPa WNW 20.9 km/h 43.5 km/h 84 % 0 mm 0 W/m2
05:05 12.5 °C 9.9 °C 1009.4 hPa West 24.1 km/h 43.5 km/h 84 % 0 mm 0 W/m2
05:10 12.6 °C 9.9 °C 1009.7 hPa WNW 24.1 km/h 40.2 km/h 84 % 0 mm 0 W/m2
05:15 12.5 °C 9.9 °C 1009.7 hPa WNW 20.9 km/h 37 km/h 84 % 0 mm 0 W/m2
05:20 12.5 °C 9.9 °C 1009.7 hPa WNW 20.9 km/h 38.6 km/h 84 % 0 mm 0 W/m2
05:25 12.4 °C 9.8 °C 1009.7 hPa WNW 20.9 km/h 38.6 km/h 84 % 0 mm 0 W/m2
05:30 12.4 °C 9.8 °C 1009.7 hPa West 20.9 km/h 32.2 km/h 84 % 0 mm 0 W/m2
05:35 12.4 °C 9.8 °C 1009.7 hPa West 20.9 km/h 51.5 km/h 84 % 0 mm 0 W/m2
05:40 12.4 °C 9.8 °C 1010 hPa West 19.3 km/h 51.5 km/h 84 % 0 mm 0 W/m2
05:45 12.4 °C 9.8 °C 1010 hPa West 19.3 km/h 35.4 km/h 84 % 0 mm 0 W/m2
05:50 12.4 °C 9.8 °C 1009.7 hPa West 20.9 km/h 35.4 km/h 84 % 0 mm 0 W/m2
05:55 12.4 °C 9.8 °C 1010 hPa West 20.9 km/h 37 km/h 84 % 0 mm 5 W/m2
06:00 12.4 °C 9.8 °C 1010 hPa West 20.9 km/h 37 km/h 84 % 0 mm 9 W/m2
06:05 12.4 °C 9.9 °C 1010 hPa West 19.3 km/h 37 km/h 85 % 0 mm 11 W/m2
06:11 12.4 °C 9.9 °C 1010 hPa West 17.7 km/h 37 km/h 85 % 0 mm 11 W/m2
06:16 12.4 °C 9.9 °C 1010 hPa West 19.3 km/h 32.2 km/h 85 % 0 mm 14 W/m2
06:21 12.5 °C 10.1 °C 1010 hPa West 20.9 km/h 32.2 km/h 85 % 0 mm 18 W/m2
06:26 12.5 °C 10.1 °C 1010 hPa West 22.5 km/h 41.8 km/h 85 % 0 mm 23 W/m2
06:31 12.6 °C 9.9 °C 1010 hPa West 24.1 km/h 41.8 km/h 84 % 0 mm 26 W/m2
06:36 12.6 °C 9.9 °C 1010 hPa West 24.1 km/h 38.6 km/h 84 % 0 mm 28 W/m2
06:41 12.7 °C 10.1 °C 1010 hPa West 24.1 km/h 38.6 km/h 84 % 0 mm 33 W/m2
06:46 12.7 °C 10.1 °C 1010 hPa West 24.1 km/h 38.6 km/h 84 % 0 mm 33 W/m2
06:51 12.8 °C 10.2 °C 1010 hPa West 20.9 km/h 38.6 km/h 84 % 0 mm 32 W/m2
06:56 12.8 °C 10.3 °C 1010 hPa West 19.3 km/h 37 km/h 85 % 0 mm 32 W/m2
07:01 12.9 °C 10.3 °C 1010.4 hPa West 19.3 km/h 35.4 km/h 84 % 0 mm 53 W/m2
07:06 13.1 °C 10.4 °C 1010.4 hPa West 20.9 km/h 35.4 km/h 84 % 0 mm 69 W/m2
07:11 13.2 °C 10.6 °C 1010.4 hPa West 20.9 km/h 35.4 km/h 84 % 0 mm 37 W/m2
07:16 13.3 °C 10.7 °C 1010.4 hPa West 19.3 km/h 35.4 km/h 84 % 0 mm 25 W/m2
07:21 13.2 °C 10.4 °C 1010.4 hPa West 17.7 km/h 30.6 km/h 83 % 0 mm 28 W/m2
07:26 13.1 °C 10.3 °C 1010.7 hPa West 19.3 km/h 30.6 km/h 83 % 0 mm 37 W/m2
07:31 13.2 °C 10.4 °C 1010.4 hPa West 19.3 km/h 33.8 km/h 83 % 0 mm 190 W/m2
07:36 13.3 °C 10.5 °C 1010.7 hPa West 17.7 km/h 33.8 km/h 83 % 0 mm 209 W/m2
07:41 13.6 °C 10.8 °C 1010.7 hPa West 19.3 km/h 40.2 km/h 83 % 0 mm 178 W/m2
07:46 13.8 °C 10.6 °C 1010.7 hPa West 20.9 km/h 40.2 km/h 81 % 0 mm 234 W/m2
07:51 14 °C 10.6 °C 1011.1 hPa West 22.5 km/h 46.7 km/h 80 % 0 mm 262 W/m2
07:56 14.2 °C 10.8 °C 1011.1 hPa West 24.1 km/h 46.7 km/h 80 % 0 mm 336 W/m2
08:01 14.4 °C 10.8 °C 1011.1 hPa West 22.5 km/h 37 km/h 79 % 0 mm 104 W/m2
08:06 14.4 °C 10.8 °C 1011.1 hPa West 22.5 km/h 37 km/h 79 % 0 mm 132 W/m2
08:08 14.3 °C 10.7 °C 1011.1 hPa West 20.9 km/h 37 km/h 79 % 0 mm 113 W/m2
08:13 14.3 °C 10.7 °C 1011.1 hPa West 22.5 km/h 40.2 km/h 79 % 0 mm 69 W/m2
08:18 14.2 °C 10.8 °C 1011.1 hPa West 22.5 km/h 40.2 km/h 80 % 0 mm 113 W/m2
08:23 14.3 °C 10.9 °C 1011.1 hPa West 20.9 km/h 35.4 km/h 80 % 0 mm 174 W/m2
08:28 14.3 °C 10.9 °C 1011.1 hPa West 22.5 km/h 35.4 km/h 80 % 0 mm 114 W/m2
08:33 14.3 °C 10.9 °C 1011.1 hPa West 19.3 km/h 35.4 km/h 80 % 0 mm 97 W/m2
08:36 14.3 °C 10.7 °C 1011.1 hPa West 19.3 km/h 40.2 km/h 79 % 0 mm 388 W/m2
08:41 14.4 °C 11 °C 1011.4 hPa West 20.9 km/h 40.2 km/h 80 % 0 mm 399 W/m2
08:46 14.7 °C 10.9 °C 1011.4 hPa West 19.3 km/h 33.8 km/h 78 % 0 mm 279 W/m2
08:51 14.9 °C 11.1 °C 1011.4 hPa West 19.3 km/h 37 km/h 78 % 0 mm 492 W/m2
08:56 15 °C 11 °C 1011.4 hPa West 22.5 km/h 38.6 km/h 77 % 0 mm 501 W/m2
09:01 15.3 °C 11.5 °C 1011.4 hPa West 20.9 km/h 38.6 km/h 78 % 0 mm 207 W/m2
09:06 15.2 °C 11 °C 1011.4 hPa West 19.3 km/h 33.8 km/h 76 % 0 mm 227 W/m2
09:11 15.2 °C 11.2 °C 1011.4 hPa West 20.9 km/h 40.2 km/h 77 % 0 mm 476 W/m2
09:16 15.3 °C 11.1 °C 1011.4 hPa West 20.9 km/h 40.2 km/h 76 % 0 mm 487 W/m2
09:21 15.4 °C 11.2 °C 1011.7 hPa West 20.9 km/h 41.8 km/h 76 % 0 mm 466 W/m2
09:26 15.6 °C 11.2 °C 1011.4 hPa West 20.9 km/h 41.8 km/h 75 % 0 mm 664 W/m2
09:31 15.8 °C 11.2 °C 1011.7 hPa West 20.9 km/h 38.6 km/h 74 % 0 mm 236 W/m2
09:36 15.5 °C 10.9 °C 1011.7 hPa West 22.5 km/h 37 km/h 74 % 0 mm 174 W/m2
09:41 15.3 °C 10.9 °C 1011.7 hPa West 19.3 km/h 37 km/h 75 % 0 mm 250 W/m2
09:46 15 °C 11.6 °C 1011.7 hPa West 19.3 km/h 33.8 km/h 80 % 0 mm 116 W/m2
09:51 14.5 °C 11.4 °C 1011.7 hPa WSW 19.3 km/h 33.8 km/h 82 % 0 mm 156 W/m2
09:56 14.2 °C 11.6 °C 1011.7 hPa WSW 19.3 km/h 30.6 km/h 84 % 0 mm 329 W/m2
10:01 14.2 °C 11.7 °C 1012.1 hPa WSW 19.3 km/h 32.2 km/h 85 % 0 mm 264 W/m2
10:06 14.2 °C 11.7 °C 1012.1 hPa West 17.7 km/h 32.2 km/h 85 % 0 mm 274 W/m2
10:11 14.2 °C 11.6 °C 1012.1 hPa West 19.3 km/h 35.4 km/h 84 % 0 mm 153 W/m2
10:12 14.2 °C 11.6 °C 1012.1 hPa West 19.3 km/h 35.4 km/h 84 % 0 mm 134 W/m2
10:17 14.2 °C 11.3 °C 1012.1 hPa West 20.9 km/h 37 km/h 83 % 0 mm 114 W/m2
10:22 14.3 °C 11.6 °C 1012.1 hPa West 19.3 km/h 37 km/h 84 % 0 mm 724 W/m2
10:27 14.6 °C 11.7 °C 1012.1 hPa WSW 17.7 km/h 30.6 km/h 83 % 0 mm 773 W/m2
10:32 14.9 °C 11.7 °C 1011.7 hPa West 20.9 km/h 35.4 km/h 81 % 0 mm 471 W/m2
10:37 15.3 °C 11.5 °C 1011.7 hPa West 22.5 km/h 37 km/h 78 % 0 mm 236 W/m2
10:42 15.3 °C 11.5 °C 1011.7 hPa West 20.9 km/h 37 km/h 78 % 0 mm 167 W/m2
10:47 15.2 °C 11.6 °C 1012.1 hPa WSW 19.3 km/h 32.2 km/h 79 % 0 mm 315 W/m2
10:52 14.9 °C 11.5 °C 1012.1 hPa West 17.7 km/h 33.8 km/h 80 % 0 mm 251 W/m2
10:57 15 °C 11.4 °C 1012.1 hPa West 17.7 km/h 33.8 km/h 79 % 0 mm 299 W/m2
11:03 15.1 °C 11.3 °C 1012.1 hPa West 19.3 km/h 37 km/h 78 % 0 mm 258 W/m2
11:08 15.1 °C 11.3 °C 1012.4 hPa WSW 19.3 km/h 37 km/h 78 % 0 mm 227 W/m2
11:13 15.1 °C 11.5 °C 1012.4 hPa WSW 19.3 km/h 30.6 km/h 79 % 0 mm 151 W/m2
11:18 14.8 °C 11.2 °C 1012.4 hPa WSW 20.9 km/h 37 km/h 79 % 0 mm 246 W/m2
11:23 14.6 °C 11 °C 1012.1 hPa West 20.9 km/h 37 km/h 79 % 0 mm 318 W/m2
11:28 14.6 °C 10.8 °C 1012.1 hPa West 17.7 km/h 32.2 km/h 78 % 0 mm 216 W/m2
11:33 14.6 °C 10.8 °C 1012.4 hPa West 19.3 km/h 37 km/h 78 % 0 mm 186 W/m2
11:38 14.7 °C 11.1 °C 1012.4 hPa West 20.9 km/h 37 km/h 79 % 0 mm 856 W/m2
11:43 15.4 °C 11.8 °C 1012.4 hPa West 20.9 km/h 38.6 km/h 79 % 0 mm 932 W/m2
11:48 15.9 °C 11.7 °C 1012.4 hPa West 22.5 km/h 45.1 km/h 76 % 0 mm 251 W/m2
11:53 15.6 °C 12.2 °C 1012.8 hPa West 25.7 km/h 46.7 km/h 80 % 0.25 mm 111 W/m2
11:58 14.8 °C 11.6 °C 1012.8 hPa West 25.7 km/h 46.7 km/h 81 % 0.25 mm 183 W/m2
12:03 14.6 °C 11.9 °C 1012.8 hPa West 22.5 km/h 41.8 km/h 84 % 0.25 mm 868 W/m2
12:08 14.8 °C 11.9 °C 1012.4 hPa West 20.9 km/h 43.5 km/h 83 % 0.25 mm 940 W/m2
12:13 15.1 °C 11.9 °C 1012.8 hPa West 22.5 km/h 43.5 km/h 81 % 0.25 mm 455 W/m2
12:18 15.1 °C 11.5 °C 1012.8 hPa West 25.7 km/h 43.5 km/h 79 % 0.25 mm 638 W/m2
12:23 15.5 °C 12.1 °C 1012.8 hPa West 22.5 km/h 43.5 km/h 80 % 0.25 mm 499 W/m2
12:28 15.9 °C 12.1 °C 1012.8 hPa West 20.9 km/h 41.8 km/h 78 % 0.25 mm 1042 W/m2
12:33 16.4 °C 11.8 °C 1012.8 hPa West 24.1 km/h 41.8 km/h 74 % 0.25 mm 1074 W/m2
12:38 16.8 °C 11.7 °C 1012.8 hPa West 24.1 km/h 41.8 km/h 72 % 0.25 mm 1025 W/m2
12:43 16.8 °C 11.3 °C 1012.8 hPa West 24.1 km/h 41.8 km/h 70 % 0.25 mm 327 W/m2
12:48 16.4 °C 10.9 °C 1013.1 hPa West 22.5 km/h 35.4 km/h 70 % 0.25 mm 142 W/m2
12:53 15.8 °C 11.2 °C 1013.1 hPa West 24.1 km/h 43.5 km/h 74 % 0 mm 185 W/m2
12:58 15 °C 11.2 °C 1013.4 hPa West 25.7 km/h 43.5 km/h 78 % 0 mm 141 W/m2
13:03 14.3 °C 11.3 °C 1013.4 hPa WSW 20.9 km/h 37 km/h 82 % 0.25 mm 246 W/m2
13:08 14.1 °C 11.6 °C 1013.1 hPa West 16.1 km/h 30.6 km/h 85 % 0.25 mm 884 W/m2
13:13 14.3 °C 12.2 °C 1013.1 hPa West 16.1 km/h 30.6 km/h 87 % 0.25 mm 253 W/m2
13:18 14.4 °C 12.3 °C 1013.1 hPa West 14.5 km/h 24.1 km/h 87 % 0.25 mm 334 W/m2
13:23 14.6 °C 12.4 °C 1013.1 hPa WNW 14.5 km/h 29 km/h 87 % 0.25 mm 297 W/m2
13:28 14.6 °C 12.1 °C 1013.1 hPa WNW 17.7 km/h 30.6 km/h 85 % 0.25 mm 160 W/m2
13:33 14.4 °C 11.6 °C 1013.4 hPa WNW 20.9 km/h 33.8 km/h 83 % 0.25 mm 188 W/m2
13:39 14.4 °C 11.9 °C 1013.4 hPa West 19.3 km/h 33.8 km/h 85 % 0.25 mm 278 W/m2
13:44 14.7 °C 12.4 °C 1013.4 hPa WNW 14.5 km/h 25.7 km/h 86 % 0.25 mm 455 W/m2
13:49 14.9 °C 12.4 °C 1013.4 hPa WNW 14.5 km/h 25.7 km/h 85 % 0.25 mm 464 W/m2
13:54 14.9 °C 12.2 °C 1013.4 hPa WNW 16.1 km/h 25.7 km/h 84 % 0.25 mm 160 W/m2
13:59 14.8 °C 12.3 °C 1013.4 hPa WNW 14.5 km/h 24.1 km/h 85 % 0.25 mm 121 W/m2
14:04 14.4 °C 11.7 °C 1013.4 hPa WNW 17.7 km/h 37 km/h 84 % 0.25 mm 162 W/m2
14:09 14.3 °C 12 °C 1013.4 hPa WNW 19.3 km/h 37 km/h 86 % 0.25 mm 951 W/m2
14:14 14.7 °C 12.7 °C 1013.4 hPa WNW 17.7 km/h 33.8 km/h 88 % 0.25 mm 923 W/m2
14:19 15.2 °C 13.1 °C 1013.8 hPa WNW 16.1 km/h 32.2 km/h 87 % 0.25 mm 921 W/m2
14:24 15.3 °C 11.9 °C 1013.8 hPa WNW 20.9 km/h 41.8 km/h 80 % 0.25 mm 239 W/m2
14:29 15.1 °C 11.7 °C 1013.8 hPa WNW 22.5 km/h 41.8 km/h 80 % 0.25 mm 320 W/m2
14:34 15.4 °C 12.5 °C 1013.8 hPa West 17.7 km/h 32.2 km/h 83 % 0.25 mm 830 W/m2
14:39 15.8 °C 12.2 °C 1013.8 hPa West 19.3 km/h 41.8 km/h 79 % 0.25 mm 809 W/m2
14:44 16 °C 11.4 °C 1013.8 hPa West 25.7 km/h 41.8 km/h 74 % 0.25 mm 807 W/m2
14:49 16.1 °C 10.6 °C 1013.8 hPa West 27.4 km/h 41.8 km/h 70 % 0.25 mm 309 W/m2
14:54 16 °C 10.9 °C 1013.8 hPa WNW 24.1 km/h 43.5 km/h 72 % 0.25 mm 397 W/m2
14:59 16.2 °C 11.2 °C 1013.8 hPa WNW 22.5 km/h 43.5 km/h 72 % 0 mm 652 W/m2
15:04 16.3 °C 11.1 °C 1013.8 hPa West 20.9 km/h 38.6 km/h 71 % 0 mm 592 W/m2
15:09 16.2 °C 10.9 °C 1013.8 hPa West 20.9 km/h 35.4 km/h 71 % 0 mm 211 W/m2
15:14 16.1 °C 11.1 °C 1013.8 hPa West 19.3 km/h 35.4 km/h 72 % 0 mm 211 W/m2
15:19 16.2 °C 10.5 °C 1013.8 hPa West 20.9 km/h 38.6 km/h 69 % 0 mm 719 W/m2
15:24 16.4 °C 10.9 °C 1014.1 hPa West 22.5 km/h 41.8 km/h 70 % 0 mm 740 W/m2
15:29 16.7 °C 11 °C 1013.8 hPa West 24.1 km/h 41.8 km/h 69 % 0 mm 784 W/m2
15:34 16.7 °C 10.8 °C 1013.8 hPa West 25.7 km/h 43.5 km/h 68 % 0 mm 188 W/m2
15:39 16.7 °C 10.8 °C 1013.8 hPa West 24.1 km/h 43.5 km/h 68 % 0 mm 183 W/m2
15:44 16.6 °C 10.9 °C 1013.8 hPa West 22.5 km/h 40.2 km/h 69 % 0 mm 779 W/m2
15:49 16.7 °C 10.8 °C 1014.1 hPa West 24.1 km/h 40.2 km/h 68 % 0 mm 708 W/m2
15:54 16.7 °C 11 °C 1014.1 hPa West 25.7 km/h 40.2 km/h 69 % 0 mm 257 W/m2
15:59 16.4 °C 11.1 °C 1014.1 hPa West 22.5 km/h 37 km/h 71 % 0 mm 193 W/m2
16:04 16.1 °C 10.6 °C 1014.4 hPa West 22.5 km/h 40.2 km/h 70 % 0 mm 200 W/m2
16:09 16 °C 10.7 °C 1014.4 hPa West 24.1 km/h 40.2 km/h 71 % 0 mm 311 W/m2
16:14 15.9 °C 11.1 °C 1014.4 hPa West 20.9 km/h 38.6 km/h 73 % 0 mm 599 W/m2
16:19 15.9 °C 10.8 °C 1014.4 hPa West 19.3 km/h 38.6 km/h 72 % 0 mm 183 W/m2
16:24 15.8 °C 10.9 °C 1014.4 hPa West 19.3 km/h 37 km/h 73 % 0 mm 216 W/m2
16:29 15.9 °C 11.3 °C 1014.4 hPa West 17.7 km/h 37 km/h 74 % 0 mm 645 W/m2
16:34 16.3 °C 11.4 °C 1014.1 hPa West 16.1 km/h 24.1 km/h 73 % 0 mm 686 W/m2
16:39 16.4 °C 10.9 °C 1014.4 hPa West 17.7 km/h 37 km/h 70 % 0 mm 169 W/m2
16:44 16.3 °C 10.6 °C 1014.4 hPa West 19.3 km/h 37 km/h 69 % 0 mm 146 W/m2
16:49 16.3 °C 10.6 °C 1014.4 hPa West 20.9 km/h 38.6 km/h 69 % 0 mm 540 W/m2
16:54 16.4 °C 10.7 °C 1014.4 hPa West 20.9 km/h 38.6 km/h 69 % 0 mm 464 W/m2
16:59 16.6 °C 10.9 °C 1014.4 hPa West 17.7 km/h 32.2 km/h 69 % 0 mm 448 W/m2
17:04 16.8 °C 11.1 °C 1014.4 hPa West 16.1 km/h 32.2 km/h 69 % 0 mm 438 W/m2
17:09 17.1 °C 10.9 °C 1014.4 hPa West 17.7 km/h 33.8 km/h 67 % 0 mm 427 W/m2
17:11 17.1 °C 10.7 °C 1014.4 hPa West 19.3 km/h 38.6 km/h 66 % 0 mm 383 W/m2
17:16 17 °C 10.1 °C 1014.4 hPa West 24.1 km/h 43.5 km/h 64 % 0 mm 424 W/m2
17:21 17.1 °C 9.8 °C 1014.4 hPa West 24.1 km/h 43.5 km/h 62 % 0 mm 403 W/m2
17:27 17.1 °C 9.5 °C 1014.4 hPa West 22.5 km/h 41.8 km/h 61 % 0 mm 383 W/m2
17:32 17 °C 9.7 °C 1014.4 hPa West 22.5 km/h 41.8 km/h 62 % 0 mm 371 W/m2
17:37 16.8 °C 9.7 °C 1014.4 hPa West 24.1 km/h 43.5 km/h 63 % 0 mm 93 W/m2
17:42 16.4 °C 9.8 °C 1014.8 hPa West 24.1 km/h 43.5 km/h 65 % 0 mm 135 W/m2
17:47 16.1 °C 9.9 °C 1014.8 hPa West 20.9 km/h 38.6 km/h 67 % 0 mm 114 W/m2
17:52 16.1 °C 10.2 °C 1014.8 hPa West 19.3 km/h 38.6 km/h 68 % 0 mm 250 W/m2
17:57 16.2 °C 10.3 °C 1014.8 hPa West 19.3 km/h 37 km/h 68 % 0 mm 301 W/m2
18:02 16.3 °C 10.2 °C 1014.4 hPa West 19.3 km/h 38.6 km/h 67 % 0 mm 287 W/m2
18:07 16.4 °C 10.3 °C 1014.8 hPa West 20.9 km/h 38.6 km/h 67 % 0 mm 274 W/m2
18:12 16.4 °C 10.3 °C 1014.4 hPa West 20.9 km/h 38.6 km/h 67 % 0 mm 98 W/m2
18:17 16.2 °C 10.3 °C 1014.8 hPa West 19.3 km/h 38.6 km/h 68 % 0 mm 102 W/m2
18:22 15.9 °C 10.2 °C 1014.8 hPa West 17.7 km/h 35.4 km/h 69 % 0 mm 163 W/m2
18:27 16.1 °C 10.6 °C 1014.8 hPa West 17.7 km/h 37 km/h 70 % 0 mm 255 W/m2
18:32 16.2 °C 10.3 °C 1014.8 hPa West 19.3 km/h 37 km/h 68 % 0 mm 209 W/m2
18:33 16.2 °C 10.3 °C 1014.8 hPa West 19.3 km/h 37 km/h 68 % 0 mm 202 W/m2
18:38 16.3 °C 10.4 °C 1014.8 hPa West 20.9 km/h 35.4 km/h 68 % 0 mm 195 W/m2
18:43 16.3 °C 10.2 °C 1015.1 hPa West 19.3 km/h 33.8 km/h 67 % 0 mm 185 W/m2
18:48 16.3 °C 10.2 °C 1015.1 hPa West 17.7 km/h 33.8 km/h 67 % 0 mm 174 W/m2
18:53 16.3 °C 9.9 °C 1015.1 hPa West 16.1 km/h 33.8 km/h 66 % 0 mm 160 W/m2
18:58 16.2 °C 9.6 °C 1015.1 hPa West 17.7 km/h 37 km/h 65 % 0 mm 148 W/m2
19:03 16.1 °C 9.7 °C 1015.1 hPa West 17.7 km/h 37 km/h 66 % 0 mm 134 W/m2
19:08 16 °C 9.7 °C 1015.5 hPa West 17.7 km/h 32.2 km/h 66 % 0 mm 127 W/m2
19:13 15.8 °C 9.7 °C 1015.5 hPa West 17.7 km/h 33.8 km/h 67 % 0 mm 116 W/m2
19:18 15.8 °C 9.9 °C 1015.5 hPa West 14.5 km/h 33.8 km/h 68 % 0 mm 84 W/m2
19:23 15.7 °C 9.8 °C 1015.5 hPa West 11.3 km/h 24.1 km/h 68 % 0 mm 53 W/m2
19:28 15.5 °C 10.1 °C 1015.8 hPa West 11.3 km/h 20.9 km/h 70 % 0 mm 51 W/m2
19:33 15.3 °C 9.8 °C 1015.8 hPa West 9.7 km/h 19.3 km/h 70 % 0 mm 60 W/m2
19:38 15.2 °C 10 °C 1015.8 hPa West 11.3 km/h 29 km/h 71 % 0 mm 39 W/m2
19:43 15.1 °C 10.1 °C 1015.8 hPa West 11.3 km/h 29 km/h 72 % 0 mm 39 W/m2
19:48 15 °C 10.2 °C 1015.8 hPa West 12.9 km/h 20.9 km/h 73 % 0 mm 23 W/m2
19:53 14.9 °C 10.1 °C 1015.8 hPa West 14.5 km/h 32.2 km/h 73 % 0 mm 23 W/m2
19:58 14.8 °C 10.2 °C 1015.8 hPa West 14.5 km/h 32.2 km/h 74 % 0 mm 25 W/m2
20:03 14.8 °C 10.2 °C 1015.8 hPa West 11.3 km/h 20.9 km/h 74 % 0 mm 16 W/m2
20:08 14.7 °C 10.1 °C 1016.1 hPa West 11.3 km/h 19.3 km/h 74 % 0 mm 14 W/m2
20:13 14.6 °C 10 °C 1016.1 hPa West 12.9 km/h 22.5 km/h 74 % 0 mm 9 W/m2
20:18 14.6 °C 10.2 °C 1016.1 hPa West 14.5 km/h 24.1 km/h 75 % 0 mm 5 W/m2
20:23 14.5 °C 10.1 °C 1016.1 hPa West 12.9 km/h 24.1 km/h 75 % 0 mm 0 W/m2
20:28 14.4 °C 10 °C 1016.1 hPa West 11.3 km/h 22.5 km/h 75 % 0 mm 0 W/m2
20:44 14.2 °C 10 °C 1016.1 hPa West 14.5 km/h 25.7 km/h 76 % 0 mm 0 W/m2
20:49 14.2 °C 10.2 °C 1016.1 hPa West 14.5 km/h 25.7 km/h 77 % 0 mm 0 W/m2
20:54 14.1 °C 10.1 °C 1016.5 hPa West 11.3 km/h 20.9 km/h 77 % 0 mm 0 W/m2
20:59 13.9 °C 10.1 °C 1016.5 hPa WSW 9.7 km/h 17.7 km/h 78 % 0 mm 0 W/m2
21:04 13.9 °C 10.1 °C 1016.5 hPa West 11.3 km/h 16.1 km/h 78 % 0 mm 0 W/m2
21:09 13.8 °C 10.1 °C 1016.5 hPa WSW 11.3 km/h 17.7 km/h 78 % 0 mm 0 W/m2
21:14 13.8 °C 10.1 °C 1016.5 hPa WSW 12.9 km/h 20.9 km/h 78 % 0 mm 0 W/m2
21:19 13.8 °C 10.2 °C 1016.5 hPa West 12.9 km/h 25.7 km/h 79 % 0 mm 0 W/m2
21:24 13.8 °C 10.2 °C 1016.5 hPa West 14.5 km/h 29 km/h 79 % 0 mm 0 W/m2
21:29 13.8 °C 10.2 °C 1016.5 hPa West 16.1 km/h 29 km/h 79 % 0 mm 0 W/m2
21:34 13.8 °C 10.2 °C 1016.5 hPa West 16.1 km/h 24.1 km/h 79 % 0 mm 0 W/m2
21:39 13.8 °C 10.4 °C 1016.8 hPa West 14.5 km/h 22.5 km/h 80 % 0 mm 0 W/m2
21:44 13.8 °C 10.4 °C 1016.8 hPa West 12.9 km/h 22.5 km/h 80 % 0 mm 0 W/m2
21:49 13.8 °C 10.4 °C 1016.8 hPa West 11.3 km/h 17.7 km/h 80 % 0 mm 0 W/m2
21:54 13.8 °C 10.4 °C 1016.8 hPa West 11.3 km/h 17.7 km/h 80 % 0 mm 0 W/m2
21:59 13.9 °C 10.3 °C 1016.8 hPa West 11.3 km/h 19.3 km/h 79 % 0 mm 0 W/m2
22:04 13.8 °C 10.2 °C 1017.2 hPa West 11.3 km/h 19.3 km/h 79 % 0 mm 0 W/m2
22:09 13.8 °C 10.4 °C 1017.2 hPa West 11.3 km/h 19.3 km/h 80 % 0 mm 0 W/m2
22:14 13.8 °C 10.4 °C 1017.2 hPa West 9.7 km/h 16.1 km/h 80 % 0 mm 0 W/m2
22:19 13.7 °C 10.3 °C 1017.2 hPa WSW 9.7 km/h 17.7 km/h 80 % 0 mm 0 W/m2
22:24 13.7 °C 10.3 °C 1017.2 hPa WSW 11.3 km/h 19.3 km/h 80 % 0 mm 0 W/m2
22:29 13.7 °C 10.5 °C 1017.2 hPa West 12.9 km/h 19.3 km/h 81 % 0 mm 0 W/m2
22:30 13.7 °C 10.5 °C 1017.2 hPa West 12.9 km/h 19.3 km/h 81 % 0 mm 0 W/m2
22:35 13.7 °C 10.5 °C 1017.2 hPa West 14.5 km/h 24.1 km/h 81 % 0 mm 0 W/m2
22:40 13.7 °C 10.5 °C 1017.2 hPa West 16.1 km/h 25.7 km/h 81 % 0 mm 0 W/m2
22:45 13.8 °C 10.6 °C 1017.2 hPa West 16.1 km/h 25.7 km/h 81 % 0 mm 0 W/m2
22:50 13.8 °C 10.6 °C 1016.8 hPa West 16.1 km/h 24.1 km/h 81 % 0 mm 0 W/m2
22:55 13.8 °C 10.6 °C 1016.8 hPa West 16.1 km/h 30.6 km/h 81 % 0 mm 0 W/m2
23:00 13.8 °C 10.6 °C 1017.2 hPa West 17.7 km/h 30.6 km/h 81 % 0 mm 0 W/m2
23:05 13.8 °C 10.6 °C 1017.2 hPa West 16.1 km/h 24.1 km/h 81 % 0 mm 0 W/m2
23:10 13.7 °C 10.7 °C 1017.2 hPa West 14.5 km/h 25.7 km/h 82 % 0 mm 0 W/m2
23:15 13.8 °C 10.8 °C 1016.8 hPa West 16.1 km/h 30.6 km/h 82 % 0 mm 0 W/m2
23:20 13.8 °C 10.6 °C 1017.2 hPa West 16.1 km/h 30.6 km/h 81 % 0 mm 0 W/m2
23:25 13.8 °C 10.8 °C 1017.2 hPa West 16.1 km/h 30.6 km/h 82 % 0 mm 0 W/m2
23:30 13.8 °C 10.8 °C 1017.2 hPa West 16.1 km/h 29 km/h 82 % 0 mm 0 W/m2
23:35 13.7 °C 10.7 °C 1017.2 hPa West 16.1 km/h 29 km/h 82 % 0 mm 0 W/m2
23:40 13.7 °C 10.7 °C 1017.2 hPa West 16.1 km/h 25.7 km/h 82 % 0 mm 0 W/m2
23:45 13.7 °C 10.7 °C 1017.2 hPa West 17.7 km/h 35.4 km/h 82 % 0 mm 0 W/m2
23:50 13.7 °C 10.9 °C 1017.2 hPa West 17.7 km/h 35.4 km/h 83 % 0 mm 0 W/m2
23:55 13.7 °C 10.9 °C 1017.5 hPa West 17.7 km/h 30.6 km/h 83 % 0 mm 0 W/m2
Delerius-Weather
Compliments of Weather Underground - 2.25 mb

Data updates at regular intervals.